• Join FlightAware (Why Join?)
  • Login
  • US Flag 
Gobble Gobble! 
12:59AM EST


 

Airport Tracker/Info


-or-


 

Live Flight TrackerFlight Track Log ✈ GPD638 ✈ 09-Jul-2013 ✈ KIAD - KTEB

Flight Track Log - Related Links

Times and Time Zones

All times are in EDT time to prevent confusion due to time zone crossing. See the GPD638 flight status page for this flight to view local times or setup timezone preferences in your user account.

Time Position Orientation Groundspeed Altitude Reporting Facility
EDT Latitude Longitude Course Direction KTS MPH feet Rate Location/Type
04:48PM 38.9500 -77.5000 57° Northeast 128 147 1,700  Level Potomac TRACON
04:49PM 38.9667 -77.5500 293° West 164 189 2,500 1,200 Climbing Potomac TRACON
04:50PM 39.0167 -77.5667 345° North 198 228 4,000 1,560 Climbing Potomac TRACON
04:51PM 39.0667 -77.5667 360° North 178 205 5,700 1,500 Climbing Potomac TRACON
04:52PM 39.1000 -77.5000 57° Northeast 196 226 7,100 1,440 Climbing Potomac TRACON
04:53PM 39.1167 -77.4500 67° East 198 228 8,600 900 Climbing Potomac TRACON
04:54PM 39.1669 -77.2161 57° Northeast  Level FlightAware Approximate
04:54PM 39.1500 -77.3833 57° Northeast 223 257 9,000  Level Potomac TRACON
04:55PM 39.2000 -77.3167 46° Northeast 233 268 9,800 1,140 Climbing Potomac TRACON
04:56PM 39.2333 -77.2500 57° Northeast 208 239 11,300 1,440 Climbing Potomac TRACON
04:57PM 39.2500 -77.2000 67° East 200 230 12,700 840 Climbing Potomac TRACON
04:58PM 39.3000 -77.1333 46° Northeast 229 264 13,000 60 Climbing Potomac TRACON
04:59PM 39.3000 -77.0333 90° East 267 307 12,900 -60 Descending Potomac TRACON
05:00PM 39.3000 -76.9333 90° East 271 312 12,900  Level Potomac TRACON
05:01PM 39.3000 -76.8500 90° East 272 313 12,900  Level Potomac TRACON
05:02PM 39.3000 -76.7500 90° East 276 318 12,900  Level Potomac TRACON
05:03PM 39.3000 -76.6500 90° East 283 326 12,900  Level Potomac TRACON
05:04PM 39.3000 -76.5500 90° East 273 314 12,900  Level Potomac TRACON
05:05PM 39.3000 -76.4500 90° East 267 307 12,900 -60 Level Potomac TRACON
05:06PM 39.3167 -76.3667 75° East 268 308 12,800 -480 Descending Potomac TRACON
05:07PM 39.3500 -76.2833 63° Northeast 279 321 12,000 -420 Descending Potomac TRACON
05:08PM 39.4000 -76.2000 52° Northeast 268 308 12,000  Level Potomac TRACON
05:10PM 39.4667 -76.0500 60° Northeast 265 305 12,000  Level Philadelphia TRACON
05:11PM 39.5000 -75.9833 57° Northeast 268 308 12,000  Level Philadelphia TRACON
05:12PM 39.5333 -75.9000 63° Northeast 265 305 12,000  Level Philadelphia TRACON
05:13PM 39.5833 -75.8333 46° Northeast 264 304 12,000  Level Philadelphia TRACON
05:14PM 39.6167 -75.7500 63° Northeast 265 305 12,000  Level Philadelphia TRACON
05:15PM 39.6500 -75.6667 63° Northeast 266 306 12,000  Level Philadelphia TRACON
05:16PM 39.7000 -75.6000 46° Northeast 256 295 12,000  Level Philadelphia TRACON
05:17PM 39.7667 -75.5833 11° North 254 292 12,000  Level Philadelphia TRACON
05:18PM 39.8333 -75.5500 21° North 255 293 12,000  Level Philadelphia TRACON
05:19PM 39.9000 -75.5333 11° North 254 292 12,000  Level Philadelphia TRACON
05:20PM 39.9833 -75.4667 32° Northeast 250 288 12,000  Level Philadelphia TRACON
05:21PM 40.0167 -75.4333 37° Northeast 248 285 12,000  Level Philadelphia TRACON
05:22PM 40.0667 -75.3833 37° Northeast 252 290 12,000 -300 Level Philadelphia TRACON
05:23PM 40.1333 -75.3167 37° Northeast 272 313 11,400 -480 Descending Philadelphia TRACON
05:24PM 40.2000 -75.2833 21° North 273 314 11,000 -720 Descending Philadelphia TRACON
05:25PM 40.2833 -75.2500 17° North 285 328 10,000 -1,140 Descending Philadelphia TRACON
05:26PM 40.3500 -75.1833 37° Northeast 293 337 8,800 -1,080 Descending Philadelphia TRACON
05:28PM 40.4333 -75.0333 54° Northeast 268 308 7,100 -720 Descending New York TRACON
05:29PM 40.4667 -74.9500 62° Northeast 267 307 6,800 -780 Descending New York TRACON
05:30PM 40.5167 -74.8833 45° Northeast 279 321 5,600 -1,260 Descending New York TRACON
05:31PM 40.5500 -74.8000 62° Northeast 259 298 4,300 -720 Descending New York TRACON
05:32PM 40.6000 -74.7333 45° Northeast 243 280 4,100 -120 Descending New York TRACON
05:33PM 40.6500 -74.6833 37° Northeast 228 262 4,100 -60 Level New York TRACON
05:34PM 40.7000 -74.6333 37° Northeast 242 278 4,000  Descending New York TRACON
05:35PM 40.7667 -74.5667 37° Northeast 247 284 4,100  Climbing New York TRACON
05:36PM 40.8167 -74.5167 37° Northeast 248 285 4,100  Level New York TRACON
05:37PM 40.8667 -74.4500 45° Northeast 246 283 4,100 -300 Level New York TRACON
05:38PM 40.9167 -74.4000 37° Northeast 240 276 3,600 -600 Descending New York TRACON
05:39PM 40.9667 -74.3500 37° Northeast 227 261 3,000 -300 Descending New York TRACON
05:40PM 40.9833 -74.2667 75° East 229 264 3,100 -180 Climbing New York TRACON
05:41PM 41.0000 -74.1833 75° East 234 269 2,700 -600 Descending New York TRACON
05:42PM 41.0167 -74.1167 72° East 217 250 2,000 -360 Descending New York TRACON
05:43PM 40.9833 -74.0500 124° Southeast 204 235 2,000 -120 Level New York TRACON
05:44PM 40.9500 -74.0500 180° South 141 162 1,800 -480 Descending New York TRACON
05:45PM 40.9167 -74.0500 180° South 133 153 1,100 -660 Descending New York TRACON
05:46PM 40.8833 -74.0500 180° South 120 138 500 -600 Descending New York TRACON